sensor_id;sensor_type;location;lat;lon;timestamp;P1;durP1;ratioP1;P2;durP2;ratioP2
27201;SDS011;14717;46.924;15.474;2023-02-04T00:01:36;0.95;;;0.43;;
27201;SDS011;14717;46.924;15.474;2023-02-04T00:04:02;0.43;;;0.20;;
27201;SDS011;14717;46.924;15.474;2023-02-04T00:06:27;0.20;;;0.20;;
27201;SDS011;14717;46.924;15.474;2023-02-04T00:08:53;0.22;;;0.20;;
27201;SDS011;14717;46.924;15.474;2023-02-04T00:11:18;0.30;;;0.25;;
27201;SDS011;14717;46.924;15.474;2023-02-04T00:13:46;0.32;;;0.20;;
27201;SDS011;14717;46.924;15.474;2023-02-04T00:16:12;0.47;;;0.30;;
27201;SDS011;14717;46.924;15.474;2023-02-04T00:18:37;0.38;;;0.13;;
27201;SDS011;14717;46.924;15.474;2023-02-04T00:21:02;0.03;;;0.00;;
27201;SDS011;14717;46.924;15.474;2023-02-04T00:23:28;0.00;;;0.00;;
27201;SDS011;14717;46.924;15.474;2023-02-04T00:25:53;0.20;;;0.10;;
27201;SDS011;14717;46.924;15.474;2023-02-04T00:28:19;0.03;;;0.00;;
27201;SDS011;14717;46.924;15.474;2023-02-04T00:30:44;0.00;;;0.00;;
27201;SDS011;14717;46.924;15.474;2023-02-04T00:33:11;0.10;;;0.10;;
27201;SDS011;14717;46.924;15.474;2023-02-04T00:35:37;0.95;;;0.13;;
27201;SDS011;14717;46.924;15.474;2023-02-04T00:38:03;0.10;;;0.10;;
27201;SDS011;14717;46.924;15.474;2023-02-04T00:40:29;0.17;;;0.10;;
27201;SDS011;14717;46.924;15.474;2023-02-04T00:42:54;0.00;;;0.00;;
27201;SDS011;14717;46.924;15.474;2023-02-04T00:45:19;0.43;;;0.13;;
27201;SDS011;14717;46.924;15.474;2023-02-04T00:47:45;0.45;;;0.20;;
27201;SDS011;14717;46.924;15.474;2023-02-04T00:50:10;0.47;;;0.20;;
27201;SDS011;14717;46.924;15.474;2023-02-04T00:52:35;0.10;;;0.10;;
27201;SDS011;14717;46.924;15.474;2023-02-04T00:55:01;0.50;;;0.30;;
27201;SDS011;14717;46.924;15.474;2023-02-04T00:57:26;0.20;;;0.10;;
27201;SDS011;14717;46.924;15.474;2023-02-04T00:59:52;0.65;;;0.20;;
27201;SDS011;14717;46.924;15.474;2023-02-04T01:02:17;2.08;;;0.77;;
27201;SDS011;14717;46.924;15.474;2023-02-04T01:04:42;1.73;;;0.57;;
27201;SDS011;14717;46.924;15.474;2023-02-04T01:07:08;1.00;;;0.60;;
27201;SDS011;14717;46.924;15.474;2023-02-04T01:09:33;0.10;;;0.10;;
27201;SDS011;14717;46.924;15.474;2023-02-04T01:11:59;0.30;;;0.20;;
27201;SDS011;14717;46.924;15.474;2023-02-04T01:14:24;0.10;;;0.10;;
27201;SDS011;14717;46.924;15.474;2023-02-04T01:16:49;0.32;;;0.20;;
27201;SDS011;14717;46.924;15.474;2023-02-04T01:19:15;0.10;;;0.10;;
27201;SDS011;14717;46.924;15.474;2023-02-04T01:21:40;0.57;;;0.28;;
27201;SDS011;14717;46.924;15.474;2023-02-04T01:24:06;0.43;;;0.30;;
27201;SDS011;14717;46.924;15.474;2023-02-04T01:26:31;0.63;;;0.30;;
27201;SDS011;14717;46.924;15.474;2023-02-04T01:28:56;1.42;;;0.20;;
27201;SDS011;14717;46.924;15.474;2023-02-04T01:31:22;0.88;;;0.30;;
27201;SDS011;14717;46.924;15.474;2023-02-04T01:33:47;1.50;;;0.43;;
27201;SDS011;14717;46.924;15.474;2023-02-04T01:36:12;1.08;;;0.40;;
27201;SDS011;14717;46.924;15.474;2023-02-04T01:38:38;0.47;;;0.30;;
27201;SDS011;14717;46.924;15.474;2023-02-04T01:41:03;0.90;;;0.20;;
27201;SDS011;14717;46.924;15.474;2023-02-04T01:43:30;0.65;;;0.30;;
27201;SDS011;14717;46.924;15.474;2023-02-04T01:45:56;0.73;;;0.50;;
27201;SDS011;14717;46.924;15.474;2023-02-04T01:48:21;1.45;;;0.57;;
27201;SDS011;14717;46.924;15.474;2023-02-04T01:50:48;0.68;;;0.30;;
27201;SDS011;14717;46.924;15.474;2023-02-04T01:53:19;0.55;;;0.20;;
27201;SDS011;14717;46.924;15.474;2023-02-04T01:55:47;0.45;;;0.20;;
27201;SDS011;14717;46.924;15.474;2023-02-04T01:58:14;0.40;;;0.20;;
27201;SDS011;14717;46.924;15.474;2023-02-04T02:00:41;0.20;;;0.20;;
27201;SDS011;14717;46.924;15.474;2023-02-04T02:03:07;0.30;;;0.10;;
27201;SDS011;14717;46.924;15.474;2023-02-04T02:05:45;0.17;;;0.15;;
27201;SDS011;14717;46.924;15.474;2023-02-04T02:08:13;0.30;;;0.10;;
27201;SDS011;14717;46.924;15.474;2023-02-04T02:10:40;0.10;;;0.10;;
27201;SDS011;14717;46.924;15.474;2023-02-04T02:13:09;0.45;;;0.22;;
27201;SDS011;14717;46.924;15.474;2023-02-04T02:15:36;0.15;;;0.15;;
27201;SDS011;14717;46.924;15.474;2023-02-04T02:18:02;0.30;;;0.10;;
27201;SDS011;14717;46.924;15.474;2023-02-04T02:20:28;0.10;;;0.10;;
27201;SDS011;14717;46.924;15.474;2023-02-04T02:25:25;0.20;;;0.20;;
27201;SDS011;14717;46.924;15.474;2023-02-04T02:27:51;0.65;;;0.10;;
27201;SDS011;14717;46.924;15.474;2023-02-04T02:30:16;0.20;;;0.20;;
27201;SDS011;14717;46.924;15.474;2023-02-04T02:32:44;2.10;;;0.25;;
27201;SDS011;14717;46.924;15.474;2023-02-04T02:35:10;1.17;;;0.30;;
27201;SDS011;14717;46.924;15.474;2023-02-04T02:37:36;0.73;;;0.40;;
27201;SDS011;14717;46.924;15.474;2023-02-04T02:40:02;1.33;;;0.40;;
27201;SDS011;14717;46.924;15.474;2023-02-04T02:42:27;0.88;;;0.32;;
27201;SDS011;14717;46.924;15.474;2023-02-04T02:44:54;0.00;;;0.00;;
27201;SDS011;14717;46.924;15.474;2023-02-04T02:47:20;0.32;;;0.28;;
27201;SDS011;14717;46.924;15.474;2023-02-04T02:49:47;0.15;;;0.10;;
27201;SDS011;14717;46.924;15.474;2023-02-04T02:52:15;0.00;;;0.00;;
27201;SDS011;14717;46.924;15.474;2023-02-04T02:57:14;0.10;;;0.00;;
27201;SDS011;14717;46.924;15.474;2023-02-04T02:59:42;0.00;;;0.00;;
27201;SDS011;14717;46.924;15.474;2023-02-04T03:02:08;0.57;;;0.17;;
27201;SDS011;14717;46.924;15.474;2023-02-04T03:04:40;0.08;;;0.08;;
27201;SDS011;14717;46.924;15.474;2023-02-04T03:07:09;0.00;;;0.00;;
27201;SDS011;14717;46.924;15.474;2023-02-04T03:09:36;0.17;;;0.10;;
27201;SDS011;14717;46.924;15.474;2023-02-04T03:12:02;0.10;;;0.10;;
27201;SDS011;14717;46.924;15.474;2023-02-04T03:14:29;0.85;;;0.08;;
27201;SDS011;14717;46.924;15.474;2023-02-04T03:16:55;0.22;;;0.10;;
27201;SDS011;14717;46.924;15.474;2023-02-04T03:19:22;0.00;;;0.00;;
27201;SDS011;14717;46.924;15.474;2023-02-04T03:21:49;0.25;;;0.00;;
27201;SDS011;14717;46.924;15.474;2023-02-04T03:24:15;0.40;;;0.20;;
27201;SDS011;14717;46.924;15.474;2023-02-04T03:26:41;0.47;;;0.40;;
27201;SDS011;14717;46.924;15.474;2023-02-04T03:29:07;0.50;;;0.40;;
27201;SDS011;14717;46.924;15.474;2023-02-04T03:31:34;1.13;;;0.60;;
27201;SDS011;14717;46.924;15.474;2023-02-04T03:33:59;0.88;;;0.50;;
27201;SDS011;14717;46.924;15.474;2023-02-04T03:36:24;0.17;;;0.17;;
27201;SDS011;14717;46.924;15.474;2023-02-04T03:38:50;0.50;;;0.20;;
27201;SDS011;14717;46.924;15.474;2023-02-04T03:41:16;0.13;;;0.00;;
27201;SDS011;14717;46.924;15.474;2023-02-04T03:43:42;0.10;;;0.10;;
27201;SDS011;14717;46.924;15.474;2023-02-04T03:46:07;0.00;;;0.00;;
27201;SDS011;14717;46.924;15.474;2023-02-04T03:48:32;0.50;;;0.10;;
27201;SDS011;14717;46.924;15.474;2023-02-04T03:50:58;0.00;;;0.00;;
27201;SDS011;14717;46.924;15.474;2023-02-04T03:53:23;0.43;;;0.03;;
27201;SDS011;14717;46.924;15.474;2023-02-04T03:55:48;0.00;;;0.00;;
27201;SDS011;14717;46.924;15.474;2023-02-04T03:58:14;0.00;;;0.00;;
27201;SDS011;14717;46.924;15.474;2023-02-04T04:00:39;0.00;;;0.00;;
27201;SDS011;14717;46.924;15.474;2023-02-04T04:03:05;0.00;;;0.00;;
27201;SDS011;14717;46.924;15.474;2023-02-04T04:05:30;0.28;;;0.05;;
27201;SDS011;14717;46.924;15.474;2023-02-04T04:07:56;0.08;;;0.08;;
27201;SDS011;14717;46.924;15.474;2023-02-04T04:10:22;0.00;;;0.00;;
27201;SDS011;14717;46.924;15.474;2023-02-04T04:12:47;0.10;;;0.00;;
27201;SDS011;14717;46.924;15.474;2023-02-04T04:15:12;0.00;;;0.00;;
27201;SDS011;14717;46.924;15.474;2023-02-04T04:17:38;0.32;;;0.17;;
27201;SDS011;14717;46.924;15.474;2023-02-04T04:20:03;0.65;;;0.20;;
27201;SDS011;14717;46.924;15.474;2023-02-04T04:22:29;0.20;;;0.10;;
27201;SDS011;14717;46.924;15.474;2023-02-04T04:24:54;0.43;;;0.20;;
27201;SDS011;14717;46.924;15.474;2023-02-04T04:27:20;0.55;;;0.30;;
27201;SDS011;14717;46.924;15.474;2023-02-04T04:29:45;0.47;;;0.20;;
27201;SDS011;14717;46.924;15.474;2023-02-04T04:32:11;0.38;;;0.20;;
27201;SDS011;14717;46.924;15.474;2023-02-04T04:34:36;0.40;;;0.30;;
27201;SDS011;14717;46.924;15.474;2023-02-04T04:37:01;1.38;;;0.52;;
27201;SDS011;14717;46.924;15.474;2023-02-04T04:39:27;0.28;;;0.20;;
27201;SDS011;14717;46.924;15.474;2023-02-04T04:41:52;1.60;;;0.35;;
27201;SDS011;14717;46.924;15.474;2023-02-04T04:44:17;0.40;;;0.20;;
27201;SDS011;14717;46.924;15.474;2023-02-04T04:46:43;0.55;;;0.22;;
27201;SDS011;14717;46.924;15.474;2023-02-04T04:49:08;0.20;;;0.10;;
27201;SDS011;14717;46.924;15.474;2023-02-04T04:51:33;0.40;;;0.25;;
27201;SDS011;14717;46.924;15.474;2023-02-04T04:53:59;0.20;;;0.10;;
27201;SDS011;14717;46.924;15.474;2023-02-04T04:56:24;0.38;;;0.10;;
27201;SDS011;14717;46.924;15.474;2023-02-04T04:58:50;0.10;;;0.00;;
27201;SDS011;14717;46.924;15.474;2023-02-04T05:01:15;0.13;;;0.10;;
27201;SDS011;14717;46.924;15.474;2023-02-04T05:03:41;0.30;;;0.03;;
27201;SDS011;14717;46.924;15.474;2023-02-04T05:06:06;0.00;;;0.00;;
27201;SDS011;14717;46.924;15.474;2023-02-04T05:08:33;0.10;;;0.10;;
27201;SDS011;14717;46.924;15.474;2023-02-04T05:10:59;0.90;;;0.10;;
27201;SDS011;14717;46.924;15.474;2023-02-04T05:13:25;0.13;;;0.10;;
27201;SDS011;14717;46.924;15.474;2023-02-04T05:15:51;0.00;;;0.00;;
27201;SDS011;14717;46.924;15.474;2023-02-04T05:18:16;0.00;;;0.00;;
27201;SDS011;14717;46.924;15.474;2023-02-04T05:20:41;0.20;;;0.20;;
27201;SDS011;14717;46.924;15.474;2023-02-04T05:23:07;0.20;;;0.17;;
27201;SDS011;14717;46.924;15.474;2023-02-04T05:25:32;0.10;;;0.10;;
27201;SDS011;14717;46.924;15.474;2023-02-04T05:27:57;0.00;;;0.00;;
27201;SDS011;14717;46.924;15.474;2023-02-04T05:30:25;0.50;;;0.20;;
27201;SDS011;14717;46.924;15.474;2023-02-04T05:32:50;0.00;;;0.00;;
27201;SDS011;14717;46.924;15.474;2023-02-04T05:35:16;0.30;;;0.10;;
27201;SDS011;14717;46.924;15.474;2023-02-04T05:37:41;0.35;;;0.35;;
27201;SDS011;14717;46.924;15.474;2023-02-04T05:40:07;0.10;;;0.10;;
27201;SDS011;14717;46.924;15.474;2023-02-04T05:42:33;0.50;;;0.10;;
27201;SDS011;14717;46.924;15.474;2023-02-04T05:44:58;0.10;;;0.10;;
27201;SDS011;14717;46.924;15.474;2023-02-04T05:47:23;0.13;;;0.10;;
27201;SDS011;14717;46.924;15.474;2023-02-04T05:49:49;0.20;;;0.00;;
27201;SDS011;14717;46.924;15.474;2023-02-04T05:52:14;0.40;;;0.10;;
27201;SDS011;14717;46.924;15.474;2023-02-04T05:54:39;0.03;;;0.03;;
27201;SDS011;14717;46.924;15.474;2023-02-04T05:57:06;0.00;;;0.00;;
27201;SDS011;14717;46.924;15.474;2023-02-04T05:59:32;0.47;;;0.10;;
27201;SDS011;14717;46.924;15.474;2023-02-04T06:01:57;0.52;;;0.05;;
27201;SDS011;14717;46.924;15.474;2023-02-04T06:04:22;0.10;;;0.10;;
27201;SDS011;14717;46.924;15.474;2023-02-04T06:06:48;0.20;;;0.10;;
27201;SDS011;14717;46.924;15.474;2023-02-04T06:09:13;0.20;;;0.13;;
27201;SDS011;14717;46.924;15.474;2023-02-04T06:11:38;0.00;;;0.00;;
27201;SDS011;14717;46.924;15.474;2023-02-04T06:14:04;0.10;;;0.00;;
27201;SDS011;14717;46.924;15.474;2023-02-04T06:16:29;0.25;;;0.08;;
27201;SDS011;14717;46.924;15.474;2023-02-04T06:18:54;0.38;;;0.22;;
27201;SDS011;14717;46.924;15.474;2023-02-04T06:21:20;0.43;;;0.15;;
27201;SDS011;14717;46.924;15.474;2023-02-04T06:23:45;0.20;;;0.08;;
27201;SDS011;14717;46.924;15.474;2023-02-04T06:26:13;0.30;;;0.20;;
27201;SDS011;14717;46.924;15.474;2023-02-04T06:28:38;0.10;;;0.10;;
27201;SDS011;14717;46.924;15.474;2023-02-04T06:31:04;0.73;;;0.30;;
27201;SDS011;14717;46.924;15.474;2023-02-04T06:33:29;2.90;;;1.00;;
27201;SDS011;14717;46.924;15.474;2023-02-04T06:35:55;0.35;;;0.30;;
27201;SDS011;14717;46.924;15.474;2023-02-04T06:38:20;0.00;;;0.00;;
27201;SDS011;14717;46.924;15.474;2023-02-04T06:40:45;0.70;;;0.50;;
27201;SDS011;14717;46.924;15.474;2023-02-04T06:43:17;1.08;;;0.40;;
27201;SDS011;14717;46.924;15.474;2023-02-04T06:45:42;0.98;;;0.32;;
27201;SDS011;14717;46.924;15.474;2023-02-04T06:48:08;0.43;;;0.10;;
27201;SDS011;14717;46.924;15.474;2023-02-04T06:50:33;0.80;;;0.50;;
27201;SDS011;14717;46.924;15.474;2023-02-04T06:52:58;0.10;;;0.10;;
27201;SDS011;14717;46.924;15.474;2023-02-04T06:55:24;0.40;;;0.13;;
27201;SDS011;14717;46.924;15.474;2023-02-04T06:57:49;0.90;;;0.47;;
27201;SDS011;14717;46.924;15.474;2023-02-04T07:00:14;1.85;;;0.20;;
27201;SDS011;14717;46.924;15.474;2023-02-04T07:02:40;0.20;;;0.10;;
27201;SDS011;14717;46.924;15.474;2023-02-04T07:05:06;0.70;;;0.10;;
27201;SDS011;14717;46.924;15.474;2023-02-04T07:07:32;0.00;;;0.00;;
27201;SDS011;14717;46.924;15.474;2023-02-04T07:09:57;0.22;;;0.00;;
27201;SDS011;14717;46.924;15.474;2023-02-04T07:12:22;0.00;;;0.00;;
27201;SDS011;14717;46.924;15.474;2023-02-04T07:14:48;0.13;;;0.10;;
27201;SDS011;14717;46.924;15.474;2023-02-04T07:17:13;0.00;;;0.00;;
27201;SDS011;14717;46.924;15.474;2023-02-04T07:19:38;0.05;;;0.00;;
27201;SDS011;14717;46.924;15.474;2023-02-04T07:22:04;0.00;;;0.00;;
27201;SDS011;14717;46.924;15.474;2023-02-04T07:24:29;0.00;;;0.00;;
27201;SDS011;14717;46.924;15.474;2023-02-04T07:26:55;1.35;;;0.10;;
27201;SDS011;14717;46.924;15.474;2023-02-04T07:29:20;0.52;;;0.17;;
27201;SDS011;14717;46.924;15.474;2023-02-04T07:31:46;0.70;;;0.15;;
27201;SDS011;14717;46.924;15.474;2023-02-04T07:34:12;0.10;;;0.10;;
27201;SDS011;14717;46.924;15.474;2023-02-04T07:36:38;0.68;;;0.40;;
27201;SDS011;14717;46.924;15.474;2023-02-04T07:39:04;0.77;;;0.28;;
27201;SDS011;14717;46.924;15.474;2023-02-04T07:41:29;1.52;;;0.70;;
27201;SDS011;14717;46.924;15.474;2023-02-04T07:43:55;0.38;;;0.20;;
27201;SDS011;14717;46.924;15.474;2023-02-04T07:46:20;0.73;;;0.20;;
27201;SDS011;14717;46.924;15.474;2023-02-04T07:48:45;0.75;;;0.20;;
27201;SDS011;14717;46.924;15.474;2023-02-04T07:51:11;0.00;;;0.00;;
27201;SDS011;14717;46.924;15.474;2023-02-04T07:53:36;0.40;;;0.40;;
27201;SDS011;14717;46.924;15.474;2023-02-04T07:56:04;2.33;;;0.47;;
27201;SDS011;14717;46.924;15.474;2023-02-04T07:58:33;1.95;;;0.40;;
27201;SDS011;14717;46.924;15.474;2023-02-04T08:00:59;1.10;;;0.30;;
27201;SDS011;14717;46.924;15.474;2023-02-04T08:03:25;0.93;;;0.57;;
27201;SDS011;14717;46.924;15.474;2023-02-04T08:05:53;0.95;;;0.50;;
27201;SDS011;14717;46.924;15.474;2023-02-04T08:08:18;0.75;;;0.50;;
27201;SDS011;14717;46.924;15.474;2023-02-04T08:10:44;0.43;;;0.30;;
27201;SDS011;14717;46.924;15.474;2023-02-04T08:13:10;1.13;;;0.70;;
27201;SDS011;14717;46.924;15.474;2023-02-04T08:15:35;0.65;;;0.40;;
27201;SDS011;14717;46.924;15.474;2023-02-04T08:18:03;1.20;;;0.50;;
27201;SDS011;14717;46.924;15.474;2023-02-04T08:20:28;1.25;;;0.75;;
27201;SDS011;14717;46.924;15.474;2023-02-04T08:22:54;1.10;;;0.70;;
27201;SDS011;14717;46.924;15.474;2023-02-04T08:25:20;0.52;;;0.30;;
27201;SDS011;14717;46.924;15.474;2023-02-04T08:27:45;0.95;;;0.52;;
27201;SDS011;14717;46.924;15.474;2023-02-04T08:30:11;0.90;;;0.40;;
27201;SDS011;14717;46.924;15.474;2023-02-04T08:32:37;0.88;;;0.60;;
27201;SDS011;14717;46.924;15.474;2023-02-04T08:35:03;0.55;;;0.28;;
27201;SDS011;14717;46.924;15.474;2023-02-04T08:37:29;0.52;;;0.40;;
27201;SDS011;14717;46.924;15.474;2023-02-04T08:39:55;0.50;;;0.20;;
27201;SDS011;14717;46.924;15.474;2023-02-04T08:42:20;1.05;;;0.40;;
27201;SDS011;14717;46.924;15.474;2023-02-04T08:44:45;1.10;;;0.60;;
27201;SDS011;14717;46.924;15.474;2023-02-04T08:47:13;1.00;;;0.57;;
27201;SDS011;14717;46.924;15.474;2023-02-04T08:49:39;0.73;;;0.20;;
27201;SDS011;14717;46.924;15.474;2023-02-04T08:52:11;0.30;;;0.30;;
27201;SDS011;14717;46.924;15.474;2023-02-04T08:54:39;0.32;;;0.30;;
27201;SDS011;14717;46.924;15.474;2023-02-04T08:57:10;0.85;;;0.50;;
27201;SDS011;14717;46.924;15.474;2023-02-04T08:59:39;1.30;;;0.60;;
27201;SDS011;14717;46.924;15.474;2023-02-04T09:02:04;1.15;;;0.50;;
27201;SDS011;14717;46.924;15.474;2023-02-04T09:04:30;1.33;;;0.50;;
27201;SDS011;14717;46.924;15.474;2023-02-04T09:06:55;1.65;;;0.70;;
27201;SDS011;14717;46.924;15.474;2023-02-04T09:09:21;0.75;;;0.50;;
27201;SDS011;14717;46.924;15.474;2023-02-04T09:11:46;1.30;;;0.60;;
27201;SDS011;14717;46.924;15.474;2023-02-04T09:14:12;1.00;;;0.30;;
27201;SDS011;14717;46.924;15.474;2023-02-04T09:16:37;0.43;;;0.30;;
27201;SDS011;14717;46.924;15.474;2023-02-04T09:19:03;0.30;;;0.30;;
27201;SDS011;14717;46.924;15.474;2023-02-04T09:21:29;0.35;;;0.28;;
27201;SDS011;14717;46.924;15.474;2023-02-04T09:23:55;1.35;;;0.50;;
27201;SDS011;14717;46.924;15.474;2023-02-04T09:26:21;0.43;;;0.20;;
27201;SDS011;14717;46.924;15.474;2023-02-04T09:28:46;0.43;;;0.20;;
27201;SDS011;14717;46.924;15.474;2023-02-04T09:31:12;0.20;;;0.13;;
27201;SDS011;14717;46.924;15.474;2023-02-04T09:33:39;0.15;;;0.15;;
27201;SDS011;14717;46.924;15.474;2023-02-04T09:36:05;0.43;;;0.32;;
27201;SDS011;14717;46.924;15.474;2023-02-04T09:38:32;0.28;;;0.13;;
27201;SDS011;14717;46.924;15.474;2023-02-04T09:41:07;0.20;;;0.10;;
27201;SDS011;14717;46.924;15.474;2023-02-04T09:43:49;0.10;;;0.10;;
27201;SDS011;14717;46.924;15.474;2023-02-04T09:46:37;0.30;;;0.10;;
27201;SDS011;14717;46.924;15.474;2023-02-04T09:49:03;0.65;;;0.20;;
27201;SDS011;14717;46.924;15.474;2023-02-04T09:51:29;0.15;;;0.10;;
27201;SDS011;14717;46.924;15.474;2023-02-04T09:54:04;0.10;;;0.10;;
27201;SDS011;14717;46.924;15.474;2023-02-04T09:56:39;0.13;;;0.10;;
27201;SDS011;14717;46.924;15.474;2023-02-04T09:59:12;0.10;;;0.10;;
27201;SDS011;14717;46.924;15.474;2023-02-04T10:02:24;0.35;;;0.20;;
27201;SDS011;14717;46.924;15.474;2023-02-04T10:04:59;1.40;;;0.28;;
27201;SDS011;14717;46.924;15.474;2023-02-04T10:07:27;0.30;;;0.30;;
27201;SDS011;14717;46.924;15.474;2023-02-04T10:10:01;0.40;;;0.28;;
27201;SDS011;14717;46.924;15.474;2023-02-04T10:16:07;0.25;;;0.20;;
27201;SDS011;14717;46.924;15.474;2023-02-04T10:19:14;0.20;;;0.13;;
27201;SDS011;14717;46.924;15.474;2023-02-04T10:21:45;0.63;;;0.30;;
27201;SDS011;14717;46.924;15.474;2023-02-04T10:24:20;0.65;;;0.38;;
27201;SDS011;14717;46.924;15.474;2023-02-04T10:26:50;0.32;;;0.20;;
27201;SDS011;14717;46.924;15.474;2023-02-04T10:31:43;0.65;;;0.43;;
27201;SDS011;14717;46.924;15.474;2023-02-04T10:36:36;0.80;;;0.30;;
27201;SDS011;14717;46.924;15.474;2023-02-04T10:39:03;0.20;;;0.10;;
27201;SDS011;14717;46.924;15.474;2023-02-04T10:41:31;0.20;;;0.20;;
27201;SDS011;14717;46.924;15.474;2023-02-04T10:44:06;0.70;;;0.45;;
27201;SDS011;14717;46.924;15.474;2023-02-04T10:46:35;0.95;;;0.28;;
27201;SDS011;14717;46.924;15.474;2023-02-04T10:49:14;0.10;;;0.10;;
27201;SDS011;14717;46.924;15.474;2023-02-04T10:51:45;0.55;;;0.40;;
27201;SDS011;14717;46.924;15.474;2023-02-04T10:54:12;0.10;;;0.10;;
27201;SDS011;14717;46.924;15.474;2023-02-04T10:56:54;0.50;;;0.22;;
27201;SDS011;14717;46.924;15.474;2023-02-04T10:59:29;0.25;;;0.22;;
27201;SDS011;14717;46.924;15.474;2023-02-04T11:01:55;0.68;;;0.40;;
27201;SDS011;14717;46.924;15.474;2023-02-04T11:04:33;1.85;;;0.30;;
27201;SDS011;14717;46.924;15.474;2023-02-04T11:07:08;0.13;;;0.13;;
27201;SDS011;14717;46.924;15.474;2023-02-04T11:09:44;0.30;;;0.30;;
27201;SDS011;14717;46.924;15.474;2023-02-04T11:26:46;0.35;;;0.15;;
27201;SDS011;14717;46.924;15.474;2023-02-04T11:32:40;0.57;;;0.47;;
27201;SDS011;14717;46.924;15.474;2023-02-04T11:38:03;0.60;;;0.28;;
27201;SDS011;14717;46.924;15.474;2023-02-04T11:40:56;0.52;;;0.32;;
27201;SDS011;14717;46.924;15.474;2023-02-04T11:43:42;0.30;;;0.30;;
27201;SDS011;14717;46.924;15.474;2023-02-04T11:46:15;0.50;;;0.25;;
27201;SDS011;14717;46.924;15.474;2023-02-04T11:49:19;2.13;;;0.47;;
27201;SDS011;14717;46.924;15.474;2023-02-04T11:55:10;0.50;;;0.43;;
27201;SDS011;14717;46.924;15.474;2023-02-04T11:57:41;0.75;;;0.43;;
27201;SDS011;14717;46.924;15.474;2023-02-04T12:00:41;0.55;;;0.38;;
27201;SDS011;14717;46.924;15.474;2023-02-04T12:03:31;1.23;;;0.50;;
27201;SDS011;14717;46.924;15.474;2023-02-04T12:06:33;0.40;;;0.40;;
27201;SDS011;14717;46.924;15.474;2023-02-04T12:12:29;0.38;;;0.30;;
27201;SDS011;14717;46.924;15.474;2023-02-04T12:18:14;0.50;;;0.30;;
27201;SDS011;14717;46.924;15.474;2023-02-04T12:23:42;1.15;;;0.73;;
27201;SDS011;14717;46.924;15.474;2023-02-04T12:29:28;2.20;;;1.00;;
27201;SDS011;14717;46.924;15.474;2023-02-04T12:32:08;0.15;;;0.15;;
27201;SDS011;14717;46.924;15.474;2023-02-04T12:34:41;0.52;;;0.50;;
27201;SDS011;14717;46.924;15.474;2023-02-04T12:37:06;0.77;;;0.40;;
27201;SDS011;14717;46.924;15.474;2023-02-04T12:39:34;2.47;;;0.93;;
27201;SDS011;14717;46.924;15.474;2023-02-04T12:42:03;0.52;;;0.40;;
27201;SDS011;14717;46.924;15.474;2023-02-04T12:44:50;1.73;;;0.45;;
27201;SDS011;14717;46.924;15.474;2023-02-04T12:48:15;1.83;;;0.65;;
27201;SDS011;14717;46.924;15.474;2023-02-04T12:50:57;0.45;;;0.32;;
27201;SDS011;14717;46.924;15.474;2023-02-04T12:53:49;1.02;;;0.40;;
27201;SDS011;14717;46.924;15.474;2023-02-04T12:56:20;0.65;;;0.43;;
27201;SDS011;14717;46.924;15.474;2023-02-04T12:58:56;0.50;;;0.50;;
27201;SDS011;14717;46.924;15.474;2023-02-04T13:01:32;1.08;;;0.50;;
27201;SDS011;14717;46.924;15.474;2023-02-04T13:04:10;1.35;;;0.82;;
27201;SDS011;14717;46.924;15.474;2023-02-04T13:06:38;0.43;;;0.40;;
27201;SDS011;14717;46.924;15.474;2023-02-04T13:09:04;0.80;;;0.50;;
27201;SDS011;14717;46.924;15.474;2023-02-04T13:11:29;0.80;;;0.50;;
27201;SDS011;14717;46.924;15.474;2023-02-04T13:13:54;1.10;;;0.57;;
27201;SDS011;14717;46.924;15.474;2023-02-04T13:16:25;1.17;;;0.40;;
27201;SDS011;14717;46.924;15.474;2023-02-04T13:18:56;0.60;;;0.60;;
27201;SDS011;14717;46.924;15.474;2023-02-04T13:21:22;0.93;;;0.60;;
27201;SDS011;14717;46.924;15.474;2023-02-04T13:23:49;0.40;;;0.40;;
27201;SDS011;14717;46.924;15.474;2023-02-04T13:26:17;0.40;;;0.40;;
27201;SDS011;14717;46.924;15.474;2023-02-04T13:28:43;1.45;;;0.60;;
27201;SDS011;14717;46.924;15.474;2023-02-04T13:31:11;1.40;;;0.80;;
27201;SDS011;14717;46.924;15.474;2023-02-04T13:33:39;1.27;;;0.82;;
27201;SDS011;14717;46.924;15.474;2023-02-04T13:36:14;1.60;;;0.60;;
27201;SDS011;14717;46.924;15.474;2023-02-04T13:39:12;1.50;;;0.30;;
27201;SDS011;14717;46.924;15.474;2023-02-04T13:42:31;0.88;;;0.47;;
27201;SDS011;14717;46.924;15.474;2023-02-04T13:44:56;0.52;;;0.40;;
27201;SDS011;14717;46.924;15.474;2023-02-04T13:47:25;1.05;;;0.60;;
27201;SDS011;14717;46.924;15.474;2023-02-04T13:49:53;0.82;;;0.50;;
27201;SDS011;14717;46.924;15.474;2023-02-04T13:52:18;0.63;;;0.47;;
27201;SDS011;14717;46.924;15.474;2023-02-04T13:54:44;0.32;;;0.25;;
27201;SDS011;14717;46.924;15.474;2023-02-04T13:57:24;0.40;;;0.40;;
27201;SDS011;14717;46.924;15.474;2023-02-04T14:00:04;2.15;;;1.10;;
27201;SDS011;14717;46.924;15.474;2023-02-04T14:02:42;0.35;;;0.35;;
27201;SDS011;14717;46.924;15.474;2023-02-04T14:08:13;0.43;;;0.43;;
27201;SDS011;14717;46.924;15.474;2023-02-04T14:14:28;1.63;;;0.57;;
27201;SDS011;14717;46.924;15.474;2023-02-04T14:17:11;1.05;;;0.65;;
27201;SDS011;14717;46.924;15.474;2023-02-04T14:20:06;0.90;;;0.60;;
27201;SDS011;14717;46.924;15.474;2023-02-04T14:22:32;1.13;;;0.70;;
27201;SDS011;14717;46.924;15.474;2023-02-04T14:25:00;0.20;;;0.10;;
27201;SDS011;14717;46.924;15.474;2023-02-04T14:27:35;2.17;;;0.90;;
27201;SDS011;14717;46.924;15.474;2023-02-04T14:30:09;1.27;;;0.88;;
27201;SDS011;14717;46.924;15.474;2023-02-04T14:33:12;0.75;;;0.60;;
27201;SDS011;14717;46.924;15.474;2023-02-04T14:35:43;0.70;;;0.50;;
27201;SDS011;14717;46.924;15.474;2023-02-04T14:38:08;1.70;;;0.90;;
27201;SDS011;14717;46.924;15.474;2023-02-04T14:40:35;1.75;;;1.27;;
27201;SDS011;14717;46.924;15.474;2023-02-04T14:43:01;0.65;;;0.43;;
27201;SDS011;14717;46.924;15.474;2023-02-04T14:45:26;0.95;;;0.57;;
27201;SDS011;14717;46.924;15.474;2023-02-04T14:47:51;1.15;;;0.60;;
27201;SDS011;14717;46.924;15.474;2023-02-04T14:50:20;1.00;;;0.70;;
27201;SDS011;14717;46.924;15.474;2023-02-04T14:52:51;2.03;;;0.90;;
27201;SDS011;14717;46.924;15.474;2023-02-04T14:55:17;0.77;;;0.30;;
27201;SDS011;14717;46.924;15.474;2023-02-04T14:57:44;0.65;;;0.55;;
27201;SDS011;14717;46.924;15.474;2023-02-04T15:00:10;1.65;;;0.80;;
27201;SDS011;14717;46.924;15.474;2023-02-04T15:02:36;7.10;;;2.00;;
27201;SDS011;14717;46.924;15.474;2023-02-04T15:05:01;1.15;;;0.90;;
27201;SDS011;14717;46.924;15.474;2023-02-04T15:08:02;6.50;;;1.20;;
27201;SDS011;14717;46.924;15.474;2023-02-04T15:11:10;2.30;;;1.20;;
27201;SDS011;14717;46.924;15.474;2023-02-04T15:14:09;2.35;;;1.17;;
27201;SDS011;14717;46.924;15.474;2023-02-04T15:16:38;2.70;;;1.00;;
27201;SDS011;14717;46.924;15.474;2023-02-04T15:22:57;6.63;;;2.28;;
27201;SDS011;14717;46.924;15.474;2023-02-04T15:26:28;6.70;;;2.40;;
27201;SDS011;14717;46.924;15.474;2023-02-04T15:43:21;1.08;;;0.70;;
27201;SDS011;14717;46.924;15.474;2023-02-04T15:55:40;0.70;;;0.50;;
27201;SDS011;14717;46.924;15.474;2023-02-04T16:08:18;0.57;;;0.50;;
27201;SDS011;14717;46.924;15.474;2023-02-04T16:19:59;1.55;;;0.68;;
27201;SDS011;14717;46.924;15.474;2023-02-04T16:23:00;2.17;;;1.20;;
27201;SDS011;14717;46.924;15.474;2023-02-04T16:25:26;0.77;;;0.70;;
27201;SDS011;14717;46.924;15.474;2023-02-04T16:28:30;3.47;;;1.38;;
27201;SDS011;14717;46.924;15.474;2023-02-04T16:31:17;4.63;;;2.13;;